createdAt,value
2022-11-13T00:00:43.046Z,14.00
2022-11-13T00:03:11.413Z,14.10
2022-11-13T00:05:39.818Z,14.10
2022-11-13T00:08:08.155Z,14.10
2022-11-13T00:10:36.871Z,14.10
2022-11-13T00:13:06.742Z,13.90
2022-11-13T00:15:35.226Z,13.90
2022-11-13T00:18:04.102Z,14.00
2022-11-13T00:20:32.522Z,14.00
2022-11-13T00:23:00.935Z,13.80
2022-11-13T00:25:29.379Z,13.80
2022-11-13T00:27:57.770Z,13.80
2022-11-13T00:30:27.628Z,13.80
2022-11-13T00:32:56.119Z,13.90
2022-11-13T00:35:24.556Z,13.90
2022-11-13T00:37:52.949Z,13.90
2022-11-13T00:40:21.581Z,13.90
2022-11-13T00:42:49.900Z,13.80
2022-11-13T00:45:18.312Z,13.80
2022-11-13T00:47:48.133Z,13.80
2022-11-13T00:50:16.564Z,13.70
2022-11-13T00:52:44.987Z,13.80
2022-11-13T00:55:13.310Z,13.80
2022-11-13T00:57:41.868Z,13.90
2022-11-13T01:00:11.110Z,14.00
2022-11-13T01:02:39.479Z,13.90
2022-11-13T01:05:09.752Z,13.90
2022-11-13T01:07:38.490Z,13.80
2022-11-13T01:10:07.094Z,13.80
2022-11-13T01:12:35.771Z,13.70
2022-11-13T01:15:04.327Z,13.60
2022-11-13T01:17:32.765Z,13.70
2022-11-13T01:20:01.186Z,13.80
2022-11-13T01:22:31.038Z,13.80
2022-11-13T01:24:59.400Z,13.70
2022-11-13T01:27:27.773Z,13.70
2022-11-13T01:29:56.167Z,13.70
2022-11-13T01:32:24.583Z,13.70
2022-11-13T01:34:53.046Z,13.70
2022-11-13T01:37:21.471Z,13.60
2022-11-13T01:39:51.428Z,13.30
2022-11-13T01:42:19.811Z,13.00
2022-11-13T01:44:49.239Z,12.90
2022-11-13T01:47:17.960Z,12.90
2022-11-13T01:49:47.067Z,13.00
2022-11-13T01:52:16.833Z,13.10
2022-11-13T01:54:47.116Z,13.30
2022-11-13T01:57:17.207Z,13.40
2022-11-13T01:59:48.234Z,13.50
2022-11-13T02:02:16.832Z,13.60
2022-11-13T02:04:45.738Z,13.50
2022-11-13T02:07:15.705Z,13.40
2022-11-13T02:09:45.257Z,13.40
2022-11-13T02:12:14.624Z,13.30
2022-11-13T02:14:45.789Z,13.00
2022-11-13T02:17:15.684Z,12.90
2022-11-13T02:19:45.855Z,12.70
2022-11-13T02:22:17.879Z,12.70
2022-11-13T02:24:50.999Z,12.80
2022-11-13T02:27:27.329Z,12.80
2022-11-13T02:29:55.813Z,12.90
2022-11-13T02:32:24.392Z,13.00
2022-11-13T02:34:52.789Z,13.00
2022-11-13T02:37:21.241Z,13.00
2022-11-13T02:39:51.627Z,13.00
2022-11-13T02:42:19.989Z,13.10
2022-11-13T02:44:48.455Z,13.00
2022-11-13T02:47:16.824Z,13.00
2022-11-13T02:49:45.215Z,13.10
2022-11-13T02:52:13.662Z,13.20
2022-11-13T02:54:42.067Z,13.10
2022-11-13T02:57:11.863Z,13.10
2022-11-13T02:59:40.230Z,13.20
2022-11-13T03:02:08.676Z,13.00
2022-11-13T03:05:05.349Z,13.00
2022-11-13T03:07:25.962Z,13.00
2022-11-13T03:09:54.504Z,13.10
2022-11-13T03:12:24.404Z,13.20
2022-11-13T03:14:52.832Z,13.30
2022-11-13T03:17:21.278Z,13.20
2022-11-13T03:19:49.661Z,13.10
2022-11-13T03:22:18.095Z,13.10
2022-11-13T03:24:46.458Z,13.20
2022-11-13T03:27:14.827Z,13.30
2022-11-13T03:29:44.596Z,13.40
2022-11-13T03:32:12.943Z,13.40
2022-11-13T03:34:41.269Z,13.40
2022-11-13T03:37:09.704Z,13.50
2022-11-13T03:39:38.077Z,13.60
2022-11-13T03:42:06.528Z,13.60
2022-11-13T03:44:34.986Z,13.70
2022-11-13T03:47:04.798Z,13.70
2022-11-13T03:49:33.121Z,13.60
2022-11-13T03:52:01.499Z,13.50
2022-11-13T03:54:29.891Z,13.50
2022-11-13T03:56:58.713Z,13.40
2022-11-13T03:59:27.100Z,13.40
2022-11-13T04:01:55.535Z,13.40
2022-11-13T04:04:26.258Z,13.40
2022-11-13T04:06:54.822Z,13.50
2022-11-13T04:09:23.257Z,13.50
2022-11-13T04:11:51.605Z,13.40
2022-11-13T04:14:20.097Z,13.20
2022-11-13T04:16:48.510Z,13.20
2022-11-13T04:19:16.876Z,13.10
2022-11-13T04:21:46.658Z,13.00
2022-11-13T04:24:14.995Z,13.00
2022-11-13T04:26:43.411Z,13.00
2022-11-13T04:29:11.824Z,12.90
2022-11-13T04:31:40.250Z,12.90
2022-11-13T04:34:09.479Z,12.80
2022-11-13T04:36:37.969Z,12.80
2022-11-13T04:39:07.760Z,12.80
2022-11-13T04:41:55.553Z,12.80
2022-11-13T04:44:24.183Z,12.80
2022-11-13T04:46:52.655Z,12.80
2022-11-13T04:49:21.076Z,12.80
2022-11-13T04:51:49.457Z,12.80
2022-11-13T04:54:22.027Z,12.90
2022-11-13T04:56:52.695Z,12.90
2022-11-13T04:59:21.100Z,13.00
2022-11-13T05:01:49.519Z,13.20
2022-11-13T05:04:18.090Z,13.30
2022-11-13T05:06:46.477Z,13.20
2022-11-13T05:09:15.129Z,13.10
2022-11-13T05:11:44.913Z,13.00
2022-11-13T05:14:13.473Z,13.00
2022-11-13T05:16:41.942Z,12.90
2022-11-13T05:19:10.278Z,12.90
2022-11-13T05:21:39.271Z,12.90
2022-11-13T05:24:08.056Z,12.90
2022-11-13T05:26:38.032Z,12.80
2022-11-13T05:29:07.897Z,12.80
2022-11-13T05:31:36.270Z,12.80
2022-11-13T05:34:06.165Z,12.80
2022-11-13T05:36:34.958Z,12.80
2022-11-13T05:39:03.432Z,12.80
2022-11-13T05:41:31.831Z,12.80
2022-11-13T05:44:00.346Z,12.70
2022-11-13T05:46:30.622Z,12.80
2022-11-13T05:48:59.861Z,12.90
2022-11-13T05:51:28.764Z,12.80
2022-11-13T05:53:57.167Z,12.90
2022-11-13T05:56:26.994Z,12.80
2022-11-13T05:58:56.138Z,12.80
2022-11-13T06:01:25.472Z,12.80
2022-11-13T06:03:56.203Z,12.80
2022-11-13T06:06:25.156Z,12.90
2022-11-13T06:08:54.181Z,13.00
2022-11-13T06:11:23.478Z,13.00
2022-11-13T06:13:52.253Z,13.00
2022-11-13T06:16:21.539Z,13.00
2022-11-13T06:18:50.197Z,13.10
2022-11-13T06:21:20.658Z,13.10
2022-11-13T06:23:49.325Z,13.00
2022-11-13T06:26:18.517Z,13.10
2022-11-13T06:28:46.980Z,13.00
2022-11-13T06:31:17.114Z,13.00
2022-11-13T06:33:45.541Z,13.10
2022-11-13T06:36:15.039Z,13.10
2022-11-13T06:38:44.955Z,13.20
2022-11-13T06:41:14.140Z,13.10
2022-11-13T06:43:42.944Z,13.10
2022-11-13T06:46:12.764Z,13.20
2022-11-13T06:48:41.168Z,13.10
2022-11-13T06:51:13.071Z,13.10
2022-11-13T06:53:41.435Z,13.00
2022-11-13T06:56:11.648Z,13.00
2022-11-13T06:58:40.328Z,12.80
2022-11-13T07:01:09.207Z,12.80
2022-11-13T07:03:37.657Z,12.90
2022-11-13T07:06:06.768Z,12.70
2022-11-13T07:08:35.182Z,12.70
2022-11-13T07:22:57.855Z,12.70
2022-11-13T07:25:26.591Z,12.90
2022-11-13T07:27:55.060Z,12.90
2022-11-13T07:30:23.646Z,13.00
2022-11-13T07:32:52.288Z,12.90
2022-11-13T07:35:20.713Z,12.90
2022-11-13T07:37:49.126Z,12.90
2022-11-13T07:40:19.089Z,12.90
2022-11-13T07:42:47.484Z,12.90
2022-11-13T07:45:16.037Z,12.90
2022-11-13T07:47:44.436Z,12.90
2022-11-13T07:50:12.800Z,13.00
2022-11-13T07:52:41.161Z,12.90
2022-11-13T07:55:09.835Z,12.90
2022-11-13T07:57:39.580Z,13.00
2022-11-13T08:00:08.907Z,13.00
2022-11-13T08:02:37.328Z,13.00
2022-11-13T08:05:05.922Z,13.00
2022-11-13T08:07:34.399Z,13.00
2022-11-13T08:10:02.815Z,13.00
2022-11-13T08:12:31.254Z,12.90
2022-11-13T08:15:01.053Z,13.00
2022-11-13T08:17:29.495Z,12.90
2022-11-13T08:19:57.864Z,13.00
2022-11-13T08:22:26.330Z,13.00
2022-11-13T08:24:55.053Z,13.00
2022-11-13T08:27:23.725Z,13.00
2022-11-13T08:29:52.568Z,13.00
2022-11-13T08:32:22.629Z,13.10
2022-11-13T08:34:51.013Z,13.00
2022-11-13T08:37:19.369Z,13.10
2022-11-13T08:39:47.727Z,13.00
2022-11-13T08:42:16.161Z,13.00
2022-11-13T08:44:44.537Z,13.00
2022-11-13T08:47:13.081Z,13.00
2022-11-13T08:49:42.867Z,13.00
2022-11-13T08:52:11.441Z,13.00
2022-11-13T08:54:39.879Z,13.00
2022-11-13T08:57:08.316Z,13.00
2022-11-13T08:59:36.762Z,13.00
2022-11-13T09:02:05.336Z,13.00
2022-11-13T09:04:33.783Z,13.00
2022-11-13T09:07:03.874Z,13.10
2022-11-13T09:09:33.114Z,13.20
2022-11-13T09:12:01.668Z,13.10
2022-11-13T09:14:30.756Z,12.70
2022-11-13T09:16:59.193Z,12.50
2022-11-13T09:19:27.595Z,12.60
2022-11-13T09:21:55.993Z,12.40
2022-11-13T09:24:25.852Z,12.40
2022-11-13T09:26:54.253Z,12.50
2022-11-13T09:29:26.163Z,12.70
2022-11-13T09:31:54.571Z,12.80
2022-11-13T09:34:23.146Z,12.90
2022-11-13T09:36:51.582Z,13.00
2022-11-13T09:39:19.924Z,13.10
2022-11-13T09:41:51.481Z,13.10
2022-11-13T09:44:25.760Z,13.20
2022-11-13T09:46:55.208Z,13.30
2022-11-13T09:49:26.824Z,13.30
2022-11-13T09:51:57.580Z,13.10
2022-11-13T09:54:26.233Z,13.10
2022-11-13T09:56:59.009Z,13.20
2022-11-13T09:59:30.090Z,13.20
2022-11-13T10:01:59.999Z,13.30
2022-11-13T10:04:34.687Z,13.40
2022-11-13T10:07:13.011Z,13.50
2022-11-13T10:09:48.508Z,13.70
2022-11-13T10:12:18.403Z,13.70
2022-11-13T10:14:47.651Z,13.80
2022-11-13T10:17:18.047Z,13.90
2022-11-13T10:19:49.205Z,14.00
2022-11-13T10:22:32.770Z,14.10
2022-11-13T10:25:04.363Z,14.10
2022-11-13T10:27:34.243Z,14.20
2022-11-13T10:30:03.017Z,14.30
2022-11-13T10:32:33.165Z,14.40
2022-11-13T10:35:02.816Z,14.60
2022-11-13T10:37:41.392Z,14.60
2022-11-13T10:40:09.991Z,14.70
2022-11-13T10:42:41.117Z,14.80
2022-11-13T10:45:16.746Z,14.80
2022-11-13T10:48:03.745Z,14.80
2022-11-13T10:50:33.508Z,14.70
2022-11-13T10:53:01.846Z,14.70
2022-11-13T10:55:38.963Z,14.80
2022-11-13T10:58:14.579Z,14.90
2022-11-13T11:00:45.016Z,14.90
2022-11-13T11:03:17.582Z,15.00
2022-11-13T11:05:56.285Z,15.10
2022-11-13T11:08:27.743Z,15.20
2022-11-13T11:11:15.645Z,15.30
2022-11-13T11:13:45.550Z,15.30
2022-11-13T11:16:19.129Z,15.40
2022-11-13T11:18:50.831Z,15.50
2022-11-13T11:21:21.382Z,15.40
2022-11-13T11:23:55.831Z,15.30
2022-11-13T11:26:26.234Z,15.00
2022-11-13T11:29:02.601Z,15.10
2022-11-13T11:31:36.352Z,15.00
2022-11-13T11:34:11.212Z,15.00
2022-11-13T11:36:42.974Z,15.00
2022-11-13T11:39:16.827Z,15.00
2022-11-13T11:41:49.716Z,15.00
2022-11-13T11:44:23.382Z,15.10
2022-11-13T11:46:53.369Z,15.10
2022-11-13T11:49:24.206Z,15.10
2022-11-13T11:51:58.214Z,15.10
2022-11-13T11:54:37.194Z,15.00
2022-11-13T11:57:11.536Z,15.00
2022-11-13T11:59:51.399Z,14.90
2022-11-13T12:02:34.461Z,15.00
2022-11-13T12:05:07.300Z,15.10
2022-11-13T12:07:40.063Z,15.10
2022-11-13T12:10:13.412Z,15.10
2022-11-13T12:12:46.048Z,15.10
2022-11-13T12:15:21.212Z,15.10
2022-11-13T12:17:56.810Z,15.00
2022-11-13T12:20:27.717Z,14.90
2022-11-13T12:23:02.503Z,14.90
2022-11-13T12:25:36.328Z,14.90
2022-11-13T12:28:10.749Z,15.00
2022-11-13T12:30:45.141Z,15.00
2022-11-13T12:33:19.048Z,15.10
2022-11-13T12:35:48.906Z,15.10
2022-11-13T12:38:22.873Z,15.10
2022-11-13T12:40:53.584Z,15.20
2022-11-13T12:43:36.792Z,15.30
2022-11-13T12:46:08.759Z,15.40
2022-11-13T12:48:38.405Z,15.30
2022-11-13T12:51:08.658Z,15.20
2022-11-13T12:53:45.996Z,15.30
2022-11-13T12:56:19.417Z,15.20
2022-11-13T12:59:23.591Z,15.10
2022-11-13T13:01:47.904Z,14.90
2022-11-13T13:04:27.800Z,14.70
2022-11-13T13:07:03.230Z,14.70
2022-11-13T13:09:38.618Z,14.70
2022-11-13T13:12:08.505Z,14.60
2022-11-13T13:14:48.353Z,14.60
2022-11-13T13:17:22.978Z,14.60
2022-11-13T13:19:58.668Z,14.60
2022-11-13T13:22:28.745Z,14.60
2022-11-13T13:25:00.937Z,14.50
2022-11-13T13:27:30.579Z,14.50
2022-11-13T13:29:59.340Z,14.60
2022-11-13T13:32:33.440Z,14.70
2022-11-13T13:35:05.390Z,14.90
2022-11-13T13:37:37.063Z,14.90
2022-11-13T13:40:12.511Z,15.00
2022-11-13T13:42:50.565Z,15.10
2022-11-13T13:45:25.494Z,15.20
2022-11-13T13:47:57.676Z,15.30
2022-11-13T13:50:26.667Z,15.20
2022-11-13T13:52:56.679Z,15.20
2022-11-13T13:55:28.178Z,15.00
2022-11-13T13:58:00.309Z,14.90
2022-11-13T14:00:31.272Z,14.90
2022-11-13T14:03:01.082Z,14.90
2022-11-13T14:05:30.492Z,14.90
2022-11-13T14:07:59.428Z,14.90
2022-11-13T14:10:29.179Z,14.90
2022-11-13T14:12:57.868Z,14.90
2022-11-13T14:15:27.701Z,14.80
2022-11-13T14:18:07.657Z,14.80
2022-11-13T14:20:40.894Z,14.90
2022-11-13T14:23:11.558Z,14.90
2022-11-13T14:25:40.085Z,14.90
2022-11-13T14:28:13.742Z,14.90
2022-11-13T14:30:42.228Z,14.90
2022-11-13T14:33:12.457Z,14.90
2022-11-13T14:35:41.427Z,14.90
2022-11-13T14:38:18.758Z,14.90
2022-11-13T14:40:49.053Z,14.90
2022-11-13T14:43:20.345Z,14.80
2022-11-13T14:45:55.774Z,14.80
2022-11-13T14:48:26.472Z,14.80
2022-11-13T14:50:56.088Z,14.70
2022-11-13T14:53:28.461Z,14.60
2022-11-13T14:55:58.116Z,14.60
2022-11-13T14:58:30.484Z,14.60
2022-11-13T15:00:59.074Z,14.60
2022-11-13T15:03:29.033Z,14.60
2022-11-13T15:05:57.742Z,14.70
2022-11-13T15:08:26.116Z,14.70
2022-11-13T15:10:54.608Z,14.70
2022-11-13T15:13:23.042Z,14.60
2022-11-13T15:15:51.420Z,14.60
2022-11-13T15:18:20.809Z,14.60
2022-11-13T15:20:50.710Z,14.60
2022-11-13T15:23:19.230Z,14.50
2022-11-13T15:25:47.589Z,14.50
2022-11-13T15:28:15.992Z,14.50
2022-11-13T15:30:44.524Z,14.50
2022-11-13T15:33:15.045Z,14.50
2022-11-13T15:35:43.933Z,14.50
2022-11-13T15:38:13.762Z,14.40
2022-11-13T15:40:42.197Z,14.40
2022-11-13T15:43:13.486Z,14.40
2022-11-13T15:45:44.468Z,14.40
2022-11-13T15:48:13.581Z,14.40
2022-11-13T15:50:41.958Z,14.40
2022-11-13T15:53:12.007Z,14.40
2022-11-13T15:55:42.208Z,14.40
2022-11-13T15:58:15.634Z,14.40
2022-11-13T16:00:46.131Z,14.40
2022-11-13T16:03:14.476Z,14.40
2022-11-13T16:05:42.869Z,14.40
2022-11-13T16:08:13.278Z,14.50
2022-11-13T16:10:43.111Z,14.50
2022-11-13T16:13:12.413Z,14.60
2022-11-13T16:15:40.871Z,14.60
2022-11-13T16:18:13.967Z,14.70
2022-11-13T16:20:42.381Z,14.70
2022-11-13T16:23:13.034Z,14.70
2022-11-13T16:25:41.421Z,14.80
2022-11-13T16:28:14.931Z,14.80
2022-11-13T16:30:43.593Z,14.80
2022-11-13T16:33:12.288Z,14.80
2022-11-13T16:35:41.145Z,14.80
2022-11-13T16:38:13.080Z,14.80
2022-11-13T16:40:43.370Z,14.80
2022-11-13T16:43:13.324Z,14.80
2022-11-13T16:45:41.729Z,14.70
2022-11-13T16:48:13.373Z,14.80
2022-11-13T16:50:42.059Z,14.70
2022-11-13T16:53:10.794Z,14.90
2022-11-13T16:55:39.169Z,14.80
2022-11-13T16:58:07.521Z,14.70
2022-11-13T17:00:37.282Z,14.70
2022-11-13T17:03:05.937Z,14.60
2022-11-13T17:05:34.362Z,14.60
2022-11-13T17:08:03.021Z,14.60
2022-11-13T17:10:33.176Z,14.60
2022-11-13T17:13:02.028Z,14.50
2022-11-13T17:15:30.454Z,14.50
2022-11-13T17:18:00.370Z,14.40
2022-11-13T17:20:29.405Z,14.40
2022-11-13T17:22:58.053Z,14.40
2022-11-13T17:25:28.186Z,14.30
2022-11-13T17:27:56.875Z,14.30
2022-11-13T17:30:25.253Z,14.20
2022-11-13T17:32:56.189Z,14.20
2022-11-13T17:35:26.005Z,14.20
2022-11-13T17:37:54.399Z,14.20
2022-11-13T17:40:22.783Z,14.10
2022-11-13T17:42:51.248Z,14.10
2022-11-13T17:45:19.583Z,14.00
2022-11-13T17:47:48.123Z,14.00
2022-11-13T17:50:17.534Z,13.90
2022-11-13T17:52:47.556Z,13.90
2022-11-13T17:55:17.389Z,13.90
2022-11-13T17:57:49.098Z,13.80
2022-11-13T18:00:18.162Z,13.80
2022-11-13T18:02:46.851Z,13.80
2022-11-13T18:05:15.334Z,13.80
2022-11-13T18:07:43.711Z,13.80
2022-11-13T18:10:13.486Z,13.90
2022-11-13T18:12:41.906Z,13.90
2022-11-13T18:15:10.526Z,14.00
2022-11-13T18:17:38.947Z,14.00
2022-11-13T18:20:07.862Z,14.00
2022-11-13T18:22:36.290Z,14.10
2022-11-13T18:25:04.791Z,14.10
2022-11-13T18:27:35.037Z,14.10
2022-11-13T18:30:03.478Z,14.10
2022-11-13T18:32:31.806Z,14.10
2022-11-13T18:35:00.188Z,14.10
2022-11-13T18:37:28.783Z,14.20
2022-11-13T18:39:58.369Z,14.20
2022-11-13T18:42:26.748Z,14.20
2022-11-13T18:44:57.299Z,14.20
2022-11-13T18:47:27.016Z,14.10
2022-11-13T18:49:55.397Z,14.10
2022-11-13T18:52:23.778Z,14.10
2022-11-13T18:54:52.117Z,14.10
2022-11-13T18:57:20.578Z,14.10
2022-11-13T18:59:49.005Z,14.20
2022-11-13T19:02:19.005Z,14.20
2022-11-13T19:04:47.507Z,14.20
2022-11-13T19:07:15.935Z,14.20
2022-11-13T19:09:46.093Z,14.20
2022-11-13T19:12:14.502Z,14.20
2022-11-13T19:14:42.949Z,14.20
2022-11-13T19:17:11.331Z,14.10
2022-11-13T19:19:42.399Z,14.10
2022-11-13T19:22:10.837Z,14.10
2022-11-13T19:24:39.251Z,14.10
2022-11-13T19:27:07.634Z,14.10
2022-11-13T19:29:36.014Z,14.10
2022-11-13T19:32:04.461Z,14.10
2022-11-13T19:34:32.800Z,14.10
2022-11-13T19:37:02.595Z,14.10
2022-11-13T19:39:31.003Z,14.10
2022-11-13T19:41:59.341Z,14.20
2022-11-13T19:44:28.122Z,14.10
2022-11-13T19:46:57.344Z,14.20
2022-11-13T19:49:25.740Z,14.10
2022-11-13T19:51:54.752Z,14.10
2022-11-13T19:54:24.512Z,14.00
2022-11-13T19:56:52.883Z,13.90
2022-11-13T19:59:21.292Z,14.00
2022-11-13T20:01:49.794Z,13.90
2022-11-13T20:04:18.204Z,14.00
2022-11-13T20:06:47.110Z,14.00
2022-11-13T20:09:15.483Z,13.90
2022-11-13T20:11:45.881Z,13.90
2022-11-13T20:14:14.496Z,13.80
2022-11-13T20:16:42.956Z,13.80
2022-11-13T20:19:11.327Z,13.80
2022-11-13T20:21:40.926Z,13.80
2022-11-13T20:24:10.572Z,13.90
2022-11-13T20:26:39.023Z,13.90
2022-11-13T20:29:08.827Z,13.80
2022-11-13T20:31:37.373Z,13.80
2022-11-13T20:34:05.818Z,13.70
2022-11-13T20:36:34.135Z,13.80
2022-11-13T20:39:06.761Z,13.90
2022-11-13T20:41:39.744Z,13.80
2022-11-13T20:44:09.676Z,13.80
2022-11-13T20:46:38.353Z,13.70
2022-11-13T20:49:06.832Z,13.60
2022-11-13T20:51:35.268Z,13.60
2022-11-13T20:54:05.720Z,13.60
2022-11-13T20:56:34.219Z,13.50
2022-11-13T20:59:04.136Z,13.40
2022-11-13T21:01:36.716Z,13.40
2022-11-13T21:04:05.395Z,13.40
2022-11-13T21:06:33.826Z,13.40
2022-11-13T21:09:03.603Z,13.40
2022-11-13T21:11:31.957Z,13.40
2022-11-13T21:14:00.855Z,13.40
2022-11-13T21:16:29.527Z,13.40
2022-11-13T21:19:00.851Z,13.50
2022-11-13T21:21:29.372Z,13.40
2022-11-13T21:23:58.821Z,13.50
2022-11-13T21:26:28.420Z,13.50
2022-11-13T21:28:57.152Z,13.60
2022-11-13T21:31:25.869Z,13.60
2022-11-13T21:33:54.272Z,13.70
2022-11-13T21:36:24.743Z,13.70
2022-11-13T21:38:53.834Z,13.70
2022-11-13T21:41:23.083Z,13.70
2022-11-13T21:43:52.491Z,13.60
2022-11-13T21:46:21.367Z,13.50
2022-11-13T21:48:50.123Z,13.50
2022-11-13T21:51:18.512Z,13.40
2022-11-13T21:53:48.334Z,13.40
2022-11-13T21:56:16.843Z,13.40
2022-11-13T21:58:45.424Z,13.40
2022-11-13T22:01:14.054Z,13.40
2022-11-13T22:03:42.709Z,13.40
2022-11-13T22:06:14.897Z,13.40
2022-11-13T22:08:43.341Z,13.30
2022-11-13T22:11:13.422Z,13.30
2022-11-13T22:13:41.836Z,13.30
2022-11-13T22:16:10.568Z,13.20
2022-11-13T22:18:38.974Z,13.20
2022-11-13T22:21:08.185Z,13.20
2022-11-13T22:23:36.827Z,13.20
2022-11-13T22:26:05.992Z,13.20
2022-11-13T22:28:36.647Z,13.20
2022-11-13T22:31:05.704Z,13.20
2022-11-13T22:33:35.021Z,13.20
2022-11-13T22:36:04.309Z,13.30
2022-11-13T22:38:34.114Z,13.30
2022-11-13T22:41:03.184Z,13.30
2022-11-13T22:43:36.456Z,13.40
2022-11-13T22:46:05.806Z,13.50
2022-11-13T22:48:35.358Z,13.50
2022-11-13T22:51:04.860Z,13.50
2022-11-13T22:53:33.391Z,13.50
2022-11-13T22:56:02.381Z,13.60
2022-11-13T22:58:31.228Z,13.60
2022-11-13T23:01:06.072Z,13.70
2022-11-13T23:03:37.472Z,13.60
2022-11-13T23:06:06.528Z,13.50
2022-11-13T23:08:38.874Z,13.40
2022-11-13T23:11:07.964Z,13.30
2022-11-13T23:13:36.377Z,13.20
2022-11-13T23:16:06.283Z,13.30
2022-11-13T23:18:34.723Z,13.20
2022-11-13T23:21:03.116Z,13.10
2022-11-13T23:23:31.607Z,13.20
2022-11-13T23:26:00.599Z,13.20
2022-11-13T23:28:29.236Z,13.20
2022-11-13T23:30:57.833Z,13.20
2022-11-13T23:33:27.691Z,13.20
2022-11-13T23:35:56.200Z,13.20
2022-11-13T23:38:24.938Z,13.10
2022-11-13T23:40:56.225Z,13.00
2022-11-13T23:43:47.373Z,13.10
2022-11-13T23:46:13.555Z,13.10
2022-11-13T23:48:43.393Z,13.10
2022-11-13T23:51:11.715Z,13.10
2022-11-13T23:53:40.133Z,13.10
2022-11-13T23:56:09.481Z,13.10
2022-11-13T23:58:37.931Z,13.10
